sensor_id;sensor_type;location;lat;lon;timestamp;P1;durP1;ratioP1;P2;durP2;ratioP2
20619;SDS011;10469;42.720;23.252;2022-12-29T00:02:15;35.40;;;21.13;;
20619;SDS011;10469;42.720;23.252;2022-12-29T00:04:41;40.25;;;23.52;;
20619;SDS011;10469;42.720;23.252;2022-12-29T00:07:07;41.05;;;24.30;;
20619;SDS011;10469;42.720;23.252;2022-12-29T00:09:33;41.88;;;24.77;;
20619;SDS011;10469;42.720;23.252;2022-12-29T00:11:59;39.45;;;23.48;;
20619;SDS011;10469;42.720;23.252;2022-12-29T00:14:26;39.95;;;24.38;;
20619;SDS011;10469;42.720;23.252;2022-12-29T00:17:10;42.97;;;24.92;;
20619;SDS011;10469;42.720;23.252;2022-12-29T00:19:35;38.63;;;22.48;;
20619;SDS011;10469;42.720;23.252;2022-12-29T00:22:19;36.85;;;22.15;;
20619;SDS011;10469;42.720;23.252;2022-12-29T00:25:04;38.65;;;24.08;;
20619;SDS011;10469;42.720;23.252;2022-12-29T00:27:30;36.53;;;23.10;;
20619;SDS011;10469;42.720;23.252;2022-12-29T00:30:20;41.47;;;24.25;;
20619;SDS011;10469;42.720;23.252;2022-12-29T00:33:10;44.50;;;25.90;;
20619;SDS011;10469;42.720;23.252;2022-12-29T00:35:57;55.95;;;32.08;;
20619;SDS011;10469;42.720;23.252;2022-12-29T00:38:29;63.67;;;34.03;;
20619;SDS011;10469;42.720;23.252;2022-12-29T00:41:16;54.47;;;31.48;;
20619;SDS011;10469;42.720;23.252;2022-12-29T00:44:00;54.92;;;32.92;;
20619;SDS011;10469;42.720;23.252;2022-12-29T00:46:36;55.28;;;33.10;;
20619;SDS011;10469;42.720;23.252;2022-12-29T00:49:03;57.35;;;31.90;;
20619;SDS011;10469;42.720;23.252;2022-12-29T00:51:48;50.15;;;31.75;;
20619;SDS011;10469;42.720;23.252;2022-12-29T00:54:15;47.97;;;30.67;;
20619;SDS011;10469;42.720;23.252;2022-12-29T00:56:41;57.45;;;31.52;;
20619;SDS011;10469;42.720;23.252;2022-12-29T00:59:07;54.25;;;32.40;;
20619;SDS011;10469;42.720;23.252;2022-12-29T01:01:34;48.65;;;28.88;;
20619;SDS011;10469;42.720;23.252;2022-12-29T01:04:01;54.65;;;31.38;;
20619;SDS011;10469;42.720;23.252;2022-12-29T01:06:27;52.63;;;31.27;;
20619;SDS011;10469;42.720;23.252;2022-12-29T01:08:52;52.97;;;30.45;;
20619;SDS011;10469;42.720;23.252;2022-12-29T01:11:37;52.80;;;29.73;;
20619;SDS011;10469;42.720;23.252;2022-12-29T01:14:04;53.53;;;30.48;;
20619;SDS011;10469;42.720;23.252;2022-12-29T01:16:30;47.97;;;27.70;;
20619;SDS011;10469;42.720;23.252;2022-12-29T01:18:55;42.92;;;26.17;;
20619;SDS011;10469;42.720;23.252;2022-12-29T01:21:21;39.85;;;24.58;;
20619;SDS011;10469;42.720;23.252;2022-12-29T01:23:47;40.65;;;24.13;;
20619;SDS011;10469;42.720;23.252;2022-12-29T01:26:13;37.22;;;24.08;;
20619;SDS011;10469;42.720;23.252;2022-12-29T01:28:40;36.67;;;22.05;;
20619;SDS011;10469;42.720;23.252;2022-12-29T01:31:07;37.20;;;23.40;;
20619;SDS011;10469;42.720;23.252;2022-12-29T01:33:35;30.92;;;21.50;;
20619;SDS011;10469;42.720;23.252;2022-12-29T01:36:01;31.10;;;18.80;;
20619;SDS011;10469;42.720;23.252;2022-12-29T01:38:28;31.02;;;19.33;;
20619;SDS011;10469;42.720;23.252;2022-12-29T01:40:53;28.25;;;18.38;;
20619;SDS011;10469;42.720;23.252;2022-12-29T01:43:19;29.10;;;18.27;;
20619;SDS011;10469;42.720;23.252;2022-12-29T01:45:48;30.75;;;20.15;;
20619;SDS011;10469;42.720;23.252;2022-12-29T01:48:16;29.90;;;19.48;;
20619;SDS011;10469;42.720;23.252;2022-12-29T01:50:45;27.48;;;19.58;;
20619;SDS011;10469;42.720;23.252;2022-12-29T01:53:18;30.50;;;19.55;;
20619;SDS011;10469;42.720;23.252;2022-12-29T01:55:55;30.52;;;20.08;;
20619;SDS011;10469;42.720;23.252;2022-12-29T01:58:27;31.25;;;20.20;;
20619;SDS011;10469;42.720;23.252;2022-12-29T02:00:56;31.00;;;19.58;;
20619;SDS011;10469;42.720;23.252;2022-12-29T02:03:21;33.03;;;21.67;;
20619;SDS011;10469;42.720;23.252;2022-12-29T02:08:33;31.73;;;21.13;;
20619;SDS011;10469;42.720;23.252;2022-12-29T02:11:00;32.22;;;19.92;;
20619;SDS011;10469;42.720;23.252;2022-12-29T02:13:27;32.88;;;20.13;;
20619;SDS011;10469;42.720;23.252;2022-12-29T02:15:57;32.60;;;19.90;;
20619;SDS011;10469;42.720;23.252;2022-12-29T02:29:40;29.08;;;19.33;;
20619;SDS011;10469;42.720;23.252;2022-12-29T02:32:11;31.15;;;20.42;;
20619;SDS011;10469;42.720;23.252;2022-12-29T02:34:51;30.42;;;19.13;;
20619;SDS011;10469;42.720;23.252;2022-12-29T02:37:30;31.40;;;19.15;;
20619;SDS011;10469;42.720;23.252;2022-12-29T02:42:50;28.52;;;19.27;;
20619;SDS011;10469;42.720;23.252;2022-12-29T02:50:43;31.95;;;19.02;;
20619;SDS011;10469;42.720;23.252;2022-12-29T02:53:15;30.85;;;19.30;;
20619;SDS011;10469;42.720;23.252;2022-12-29T02:56:03;33.25;;;20.50;;
20619;SDS011;10469;42.720;23.252;2022-12-29T02:58:28;30.70;;;19.98;;
20619;SDS011;10469;42.720;23.252;2022-12-29T03:03:58;39.50;;;23.00;;
20619;SDS011;10469;42.720;23.252;2022-12-29T03:09:26;39.38;;;24.63;;
20619;SDS011;10469;42.720;23.252;2022-12-29T03:12:14;39.63;;;24.60;;
20619;SDS011;10469;42.720;23.252;2022-12-29T03:15:05;41.33;;;26.00;;
20619;SDS011;10469;42.720;23.252;2022-12-29T03:18:06;36.35;;;23.17;;
20619;SDS011;10469;42.720;23.252;2022-12-29T03:20:52;40.75;;;23.85;;
20619;SDS011;10469;42.720;23.252;2022-12-29T03:23:21;34.83;;;22.63;;
20619;SDS011;10469;42.720;23.252;2022-12-29T03:25:51;41.58;;;24.27;;
20619;SDS011;10469;42.720;23.252;2022-12-29T03:28:21;38.40;;;22.60;;
20619;SDS011;10469;42.720;23.252;2022-12-29T03:30:50;41.10;;;23.65;;
20619;SDS011;10469;42.720;23.252;2022-12-29T03:33:17;40.60;;;22.70;;
20619;SDS011;10469;42.720;23.252;2022-12-29T03:35:47;38.03;;;23.23;;
20619;SDS011;10469;42.720;23.252;2022-12-29T03:38:25;39.88;;;22.83;;
20619;SDS011;10469;42.720;23.252;2022-12-29T03:40:59;40.15;;;22.60;;
20619;SDS011;10469;42.720;23.252;2022-12-29T03:43:28;35.97;;;22.77;;
20619;SDS011;10469;42.720;23.252;2022-12-29T03:45:54;33.58;;;20.83;;
20619;SDS011;10469;42.720;23.252;2022-12-29T03:48:20;36.47;;;22.70;;
20619;SDS011;10469;42.720;23.252;2022-12-29T03:50:45;38.08;;;23.02;;
20619;SDS011;10469;42.720;23.252;2022-12-29T03:53:11;38.92;;;21.60;;
20619;SDS011;10469;42.720;23.252;2022-12-29T03:55:38;35.30;;;22.45;;
20619;SDS011;10469;42.720;23.252;2022-12-29T03:58:04;35.55;;;22.73;;
20619;SDS011;10469;42.720;23.252;2022-12-29T04:00:29;32.15;;;22.92;;
20619;SDS011;10469;42.720;23.252;2022-12-29T04:02:55;34.33;;;23.35;;
20619;SDS011;10469;42.720;23.252;2022-12-29T04:05:20;40.97;;;23.42;;
20619;SDS011;10469;42.720;23.252;2022-12-29T04:07:46;33.05;;;23.55;;
20619;SDS011;10469;42.720;23.252;2022-12-29T04:10:11;38.05;;;22.95;;
20619;SDS011;10469;42.720;23.252;2022-12-29T04:12:37;35.33;;;22.85;;
20619;SDS011;10469;42.720;23.252;2022-12-29T04:15:02;35.88;;;22.17;;
20619;SDS011;10469;42.720;23.252;2022-12-29T04:17:28;39.95;;;21.85;;
20619;SDS011;10469;42.720;23.252;2022-12-29T04:19:53;32.25;;;21.52;;
20619;SDS011;10469;42.720;23.252;2022-12-29T04:22:38;37.20;;;22.13;;
20619;SDS011;10469;42.720;23.252;2022-12-29T04:25:04;31.70;;;19.58;;
20619;SDS011;10469;42.720;23.252;2022-12-29T04:27:30;34.67;;;19.80;;
20619;SDS011;10469;42.720;23.252;2022-12-29T04:29:55;32.70;;;20.75;;
20619;SDS011;10469;42.720;23.252;2022-12-29T04:32:20;37.35;;;21.50;;
20619;SDS011;10469;42.720;23.252;2022-12-29T04:34:46;29.52;;;19.85;;
20619;SDS011;10469;42.720;23.252;2022-12-29T04:37:12;33.80;;;22.15;;
20619;SDS011;10469;42.720;23.252;2022-12-29T04:39:37;35.17;;;21.35;;
20619;SDS011;10469;42.720;23.252;2022-12-29T04:42:03;30.23;;;21.30;;
20619;SDS011;10469;42.720;23.252;2022-12-29T04:44:28;36.90;;;21.88;;
20619;SDS011;10469;42.720;23.252;2022-12-29T04:46:53;32.10;;;20.67;;
20619;SDS011;10469;42.720;23.252;2022-12-29T04:49:19;35.70;;;21.50;;
20619;SDS011;10469;42.720;23.252;2022-12-29T04:51:44;33.50;;;21.50;;
20619;SDS011;10469;42.720;23.252;2022-12-29T04:54:10;34.38;;;21.83;;
20619;SDS011;10469;42.720;23.252;2022-12-29T04:56:35;37.47;;;22.20;;
20619;SDS011;10469;42.720;23.252;2022-12-29T04:59:00;37.22;;;21.92;;
20619;SDS011;10469;42.720;23.252;2022-12-29T05:01:26;34.85;;;21.58;;
20619;SDS011;10469;42.720;23.252;2022-12-29T05:03:51;35.65;;;23.67;;
20619;SDS011;10469;42.720;23.252;2022-12-29T05:06:17;37.08;;;24.67;;
20619;SDS011;10469;42.720;23.252;2022-12-29T05:08:42;39.42;;;24.30;;
20619;SDS011;10469;42.720;23.252;2022-12-29T05:11:07;39.67;;;24.40;;
20619;SDS011;10469;42.720;23.252;2022-12-29T05:13:33;43.40;;;23.50;;
20619;SDS011;10469;42.720;23.252;2022-12-29T05:15:58;32.00;;;22.63;;
20619;SDS011;10469;42.720;23.252;2022-12-29T05:18:24;37.40;;;23.63;;
20619;SDS011;10469;42.720;23.252;2022-12-29T05:20:49;35.53;;;22.83;;
20619;SDS011;10469;42.720;23.252;2022-12-29T05:23:14;35.38;;;22.45;;
20619;SDS011;10469;42.720;23.252;2022-12-29T05:25:41;35.33;;;23.15;;
20619;SDS011;10469;42.720;23.252;2022-12-29T05:28:07;36.30;;;22.65;;
20619;SDS011;10469;42.720;23.252;2022-12-29T05:30:33;39.08;;;23.13;;
20619;SDS011;10469;42.720;23.252;2022-12-29T05:32:58;37.72;;;22.08;;
20619;SDS011;10469;42.720;23.252;2022-12-29T05:35:24;34.13;;;22.98;;
20619;SDS011;10469;42.720;23.252;2022-12-29T05:37:49;37.85;;;22.17;;
20619;SDS011;10469;42.720;23.252;2022-12-29T05:40:15;34.33;;;22.50;;
20619;SDS011;10469;42.720;23.252;2022-12-29T05:42:40;38.05;;;23.73;;
20619;SDS011;10469;42.720;23.252;2022-12-29T05:45:06;42.03;;;24.15;;
20619;SDS011;10469;42.720;23.252;2022-12-29T05:47:32;33.83;;;22.77;;
20619;SDS011;10469;42.720;23.252;2022-12-29T05:49:58;38.42;;;22.73;;
20619;SDS011;10469;42.720;23.252;2022-12-29T05:52:23;37.78;;;23.65;;
20619;SDS011;10469;42.720;23.252;2022-12-29T05:54:49;35.58;;;22.50;;
20619;SDS011;10469;42.720;23.252;2022-12-29T05:57:14;40.78;;;25.23;;
20619;SDS011;10469;42.720;23.252;2022-12-29T05:59:39;41.80;;;25.55;;
20619;SDS011;10469;42.720;23.252;2022-12-29T06:02:05;50.80;;;25.80;;
20619;SDS011;10469;42.720;23.252;2022-12-29T06:04:30;39.78;;;25.83;;
20619;SDS011;10469;42.720;23.252;2022-12-29T06:06:56;39.88;;;24.90;;
20619;SDS011;10469;42.720;23.252;2022-12-29T06:09:21;47.53;;;25.65;;
20619;SDS011;10469;42.720;23.252;2022-12-29T06:11:47;38.60;;;24.17;;
20619;SDS011;10469;42.720;23.252;2022-12-29T06:14:12;39.90;;;23.83;;
20619;SDS011;10469;42.720;23.252;2022-12-29T06:16:37;36.65;;;24.92;;
20619;SDS011;10469;42.720;23.252;2022-12-29T06:19:03;43.70;;;27.08;;
20619;SDS011;10469;42.720;23.252;2022-12-29T06:21:28;45.50;;;25.83;;
20619;SDS011;10469;42.720;23.252;2022-12-29T06:23:54;44.13;;;25.88;;
20619;SDS011;10469;42.720;23.252;2022-12-29T06:26:19;47.30;;;26.40;;
20619;SDS011;10469;42.720;23.252;2022-12-29T06:28:45;50.70;;;28.92;;
20619;SDS011;10469;42.720;23.252;2022-12-29T06:31:10;53.60;;;29.50;;
20619;SDS011;10469;42.720;23.252;2022-12-29T06:33:36;56.65;;;32.60;;
20619;SDS011;10469;42.720;23.252;2022-12-29T06:36:02;53.03;;;32.35;;
20619;SDS011;10469;42.720;23.252;2022-12-29T06:38:28;50.88;;;32.80;;
20619;SDS011;10469;42.720;23.252;2022-12-29T06:40:53;53.00;;;33.47;;
20619;SDS011;10469;42.720;23.252;2022-12-29T06:59:12;42.80;;;28.08;;
20619;SDS011;10469;42.720;23.252;2022-12-29T07:01:38;37.85;;;26.42;;
20619;SDS011;10469;42.720;23.252;2022-12-29T07:04:03;41.05;;;26.02;;
20619;SDS011;10469;42.720;23.252;2022-12-29T07:06:29;42.13;;;26.17;;
20619;SDS011;10469;42.720;23.252;2022-12-29T07:08:54;53.08;;;25.92;;
20619;SDS011;10469;42.720;23.252;2022-12-29T07:11:22;49.75;;;27.05;;
20619;SDS011;10469;42.720;23.252;2022-12-29T07:13:47;43.38;;;24.33;;
20619;SDS011;10469;42.720;23.252;2022-12-29T07:16:13;45.40;;;23.55;;
20619;SDS011;10469;42.720;23.252;2022-12-29T07:18:38;38.42;;;25.63;;
20619;SDS011;10469;42.720;23.252;2022-12-29T07:21:04;33.63;;;21.55;;
20619;SDS011;10469;42.720;23.252;2022-12-29T07:23:29;34.17;;;22.13;;
20619;SDS011;10469;42.720;23.252;2022-12-29T07:25:58;38.35;;;22.77;;
20619;SDS011;10469;42.720;23.252;2022-12-29T07:30:53;37.13;;;23.75;;
20619;SDS011;10469;42.720;23.252;2022-12-29T07:33:19;41.78;;;22.95;;
20619;SDS011;10469;42.720;23.252;2022-12-29T07:35:45;36.38;;;23.73;;
20619;SDS011;10469;42.720;23.252;2022-12-29T07:38:10;35.95;;;22.08;;
20619;SDS011;10469;42.720;23.252;2022-12-29T07:40:36;35.65;;;23.17;;
20619;SDS011;10469;42.720;23.252;2022-12-29T07:43:08;41.30;;;23.48;;
20619;SDS011;10469;42.720;23.252;2022-12-29T07:45:43;36.88;;;22.23;;
20619;SDS011;10469;42.720;23.252;2022-12-29T07:48:11;37.28;;;23.25;;
20619;SDS011;10469;42.720;23.252;2022-12-29T07:50:37;41.33;;;22.15;;
20619;SDS011;10469;42.720;23.252;2022-12-29T07:53:02;38.72;;;22.63;;
20619;SDS011;10469;42.720;23.252;2022-12-29T07:55:28;31.73;;;21.25;;
20619;SDS011;10469;42.720;23.252;2022-12-29T07:57:54;32.88;;;21.92;;
20619;SDS011;10469;42.720;23.252;2022-12-29T08:00:21;31.85;;;20.75;;
20619;SDS011;10469;42.720;23.252;2022-12-29T08:02:47;32.83;;;21.58;;
20619;SDS011;10469;42.720;23.252;2022-12-29T08:05:12;32.55;;;20.40;;
20619;SDS011;10469;42.720;23.252;2022-12-29T08:07:38;34.03;;;20.45;;
20619;SDS011;10469;42.720;23.252;2022-12-29T08:10:03;42.40;;;22.10;;
20619;SDS011;10469;42.720;23.252;2022-12-29T08:12:29;39.80;;;22.60;;
20619;SDS011;10469;42.720;23.252;2022-12-29T08:14:55;45.55;;;22.58;;
20619;SDS011;10469;42.720;23.252;2022-12-29T08:17:21;43.20;;;23.40;;
20619;SDS011;10469;42.720;23.252;2022-12-29T08:19:47;36.97;;;22.55;;
20619;SDS011;10469;42.720;23.252;2022-12-29T08:22:15;43.05;;;22.85;;
20619;SDS011;10469;42.720;23.252;2022-12-29T08:24:41;41.33;;;22.00;;
20619;SDS011;10469;42.720;23.252;2022-12-29T08:27:07;35.47;;;22.45;;
20619;SDS011;10469;42.720;23.252;2022-12-29T08:29:32;36.50;;;23.00;;
20619;SDS011;10469;42.720;23.252;2022-12-29T08:31:58;42.33;;;23.88;;
20619;SDS011;10469;42.720;23.252;2022-12-29T08:34:24;36.88;;;23.27;;
20619;SDS011;10469;42.720;23.252;2022-12-29T08:36:49;40.05;;;22.52;;
20619;SDS011;10469;42.720;23.252;2022-12-29T08:39:15;33.10;;;21.90;;
20619;SDS011;10469;42.720;23.252;2022-12-29T08:41:40;39.38;;;23.00;;
20619;SDS011;10469;42.720;23.252;2022-12-29T08:44:06;36.13;;;22.20;;
20619;SDS011;10469;42.720;23.252;2022-12-29T08:46:31;42.45;;;25.17;;
20619;SDS011;10469;42.720;23.252;2022-12-29T08:48:57;36.80;;;23.42;;
20619;SDS011;10469;42.720;23.252;2022-12-29T08:51:23;33.40;;;22.80;;
20619;SDS011;10469;42.720;23.252;2022-12-29T08:53:49;35.70;;;24.75;;
20619;SDS011;10469;42.720;23.252;2022-12-29T08:56:15;31.75;;;22.35;;
20619;SDS011;10469;42.720;23.252;2022-12-29T08:58:41;43.90;;;24.35;;
20619;SDS011;10469;42.720;23.252;2022-12-29T09:01:07;39.75;;;24.25;;
20619;SDS011;10469;42.720;23.252;2022-12-29T09:03:34;40.47;;;24.65;;
20619;SDS011;10469;42.720;23.252;2022-12-29T09:05:59;35.13;;;23.38;;
20619;SDS011;10469;42.720;23.252;2022-12-29T09:08:25;76.05;;;33.38;;
20619;SDS011;10469;42.720;23.252;2022-12-29T09:10:50;45.70;;;25.30;;
20619;SDS011;10469;42.720;23.252;2022-12-29T09:13:16;39.63;;;23.45;;
20619;SDS011;10469;42.720;23.252;2022-12-29T09:15:43;38.15;;;24.38;;
20619;SDS011;10469;42.720;23.252;2022-12-29T09:18:09;38.80;;;23.40;;
20619;SDS011;10469;42.720;23.252;2022-12-29T09:20:35;40.67;;;23.48;;
20619;SDS011;10469;42.720;23.252;2022-12-29T09:23:01;34.10;;;22.80;;
20619;SDS011;10469;42.720;23.252;2022-12-29T09:25:27;31.27;;;20.75;;
20619;SDS011;10469;42.720;23.252;2022-12-29T09:27:53;30.33;;;21.58;;
20619;SDS011;10469;42.720;23.252;2022-12-29T09:30:19;37.53;;;21.52;;
20619;SDS011;10469;42.720;23.252;2022-12-29T09:32:46;37.47;;;21.17;;
20619;SDS011;10469;42.720;23.252;2022-12-29T09:35:12;35.15;;;21.95;;
20619;SDS011;10469;42.720;23.252;2022-12-29T09:37:39;34.55;;;22.30;;
20619;SDS011;10469;42.720;23.252;2022-12-29T09:40:05;38.72;;;21.50;;
20619;SDS011;10469;42.720;23.252;2022-12-29T09:42:38;31.20;;;21.17;;
20619;SDS011;10469;42.720;23.252;2022-12-29T09:45:13;35.03;;;20.98;;
20619;SDS011;10469;42.720;23.252;2022-12-29T09:47:45;37.03;;;20.73;;
20619;SDS011;10469;42.720;23.252;2022-12-29T09:55:50;40.83;;;22.45;;
20619;SDS011;10469;42.720;23.252;2022-12-29T09:58:22;30.30;;;20.70;;
20619;SDS011;10469;42.720;23.252;2022-12-29T10:01:30;34.25;;;21.75;;
20619;SDS011;10469;42.720;23.252;2022-12-29T10:03:59;35.20;;;20.73;;
20619;SDS011;10469;42.720;23.252;2022-12-29T10:25:21;36.33;;;20.20;;
20619;SDS011;10469;42.720;23.252;2022-12-29T10:27:49;43.63;;;20.63;;
20619;SDS011;10469;42.720;23.252;2022-12-29T10:30:17;34.88;;;19.63;;
20619;SDS011;10469;42.720;23.252;2022-12-29T10:32:54;35.70;;;20.50;;
20619;SDS011;10469;42.720;23.252;2022-12-29T10:35:24;35.60;;;18.95;;
20619;SDS011;10469;42.720;23.252;2022-12-29T10:38:01;37.50;;;20.73;;
20619;SDS011;10469;42.720;23.252;2022-12-29T10:40:31;31.85;;;20.20;;
20619;SDS011;10469;42.720;23.252;2022-12-29T10:43:07;29.98;;;19.70;;
20619;SDS011;10469;42.720;23.252;2022-12-29T10:45:57;34.58;;;20.02;;
20619;SDS011;10469;42.720;23.252;2022-12-29T10:48:25;37.88;;;20.77;;
20619;SDS011;10469;42.720;23.252;2022-12-29T10:50:56;33.03;;;20.98;;
20619;SDS011;10469;42.720;23.252;2022-12-29T10:53:27;35.30;;;19.80;;
20619;SDS011;10469;42.720;23.252;2022-12-29T10:56:10;30.80;;;18.85;;
20619;SDS011;10469;42.720;23.252;2022-12-29T10:59:02;34.58;;;19.23;;
20619;SDS011;10469;42.720;23.252;2022-12-29T11:01:37;35.67;;;19.63;;
20619;SDS011;10469;42.720;23.252;2022-12-29T11:06:48;42.70;;;25.75;;
20619;SDS011;10469;42.720;23.252;2022-12-29T11:09:15;44.42;;;20.65;;
20619;SDS011;10469;42.720;23.252;2022-12-29T11:11:46;29.13;;;19.50;;
20619;SDS011;10469;42.720;23.252;2022-12-29T11:14:18;34.63;;;20.10;;
20619;SDS011;10469;42.720;23.252;2022-12-29T11:17:04;35.53;;;19.63;;
20619;SDS011;10469;42.720;23.252;2022-12-29T11:19:30;34.70;;;22.05;;
20619;SDS011;10469;42.720;23.252;2022-12-29T11:22:31;37.10;;;22.63;;
20619;SDS011;10469;42.720;23.252;2022-12-29T11:24:52;38.35;;;23.25;;
20619;SDS011;10469;42.720;23.252;2022-12-29T11:27:22;39.72;;;21.10;;
20619;SDS011;10469;42.720;23.252;2022-12-29T11:29:50;34.47;;;20.33;;
20619;SDS011;10469;42.720;23.252;2022-12-29T11:32:20;33.00;;;19.55;;
20619;SDS011;10469;42.720;23.252;2022-12-29T11:34:48;31.35;;;19.23;;
20619;SDS011;10469;42.720;23.252;2022-12-29T11:37:14;33.28;;;20.35;;
20619;SDS011;10469;42.720;23.252;2022-12-29T11:42:18;33.30;;;19.25;;
20619;SDS011;10469;42.720;23.252;2022-12-29T11:44:49;33.15;;;19.65;;
20619;SDS011;10469;42.720;23.252;2022-12-29T11:47:21;35.33;;;18.52;;
20619;SDS011;10469;42.720;23.252;2022-12-29T11:49:59;30.60;;;19.00;;
20619;SDS011;10469;42.720;23.252;2022-12-29T11:52:28;28.88;;;17.02;;
20619;SDS011;10469;42.720;23.252;2022-12-29T11:54:58;33.85;;;19.55;;
20619;SDS011;10469;42.720;23.252;2022-12-29T11:57:25;31.42;;;18.27;;
20619;SDS011;10469;42.720;23.252;2022-12-29T11:59:53;31.13;;;18.98;;
20619;SDS011;10469;42.720;23.252;2022-12-29T12:02:30;33.38;;;19.25;;
20619;SDS011;10469;42.720;23.252;2022-12-29T12:05:10;29.38;;;17.80;;
20619;SDS011;10469;42.720;23.252;2022-12-29T12:07:43;32.67;;;18.15;;
20619;SDS011;10469;42.720;23.252;2022-12-29T12:12:51;28.98;;;17.45;;
20619;SDS011;10469;42.720;23.252;2022-12-29T12:15:35;45.05;;;18.63;;
20619;SDS011;10469;42.720;23.252;2022-12-29T12:21:00;31.20;;;18.20;;
20619;SDS011;10469;42.720;23.252;2022-12-29T12:29:09;43.58;;;18.80;;
20619;SDS011;10469;42.720;23.252;2022-12-29T12:31:58;31.15;;;18.17;;
20619;SDS011;10469;42.720;23.252;2022-12-29T12:34:33;33.97;;;19.05;;
20619;SDS011;10469;42.720;23.252;2022-12-29T12:55:57;24.38;;;17.27;;
20619;SDS011;10469;42.720;23.252;2022-12-29T13:01:57;35.63;;;17.98;;
20619;SDS011;10469;42.720;23.252;2022-12-29T13:07:28;30.10;;;17.58;;
20619;SDS011;10469;42.720;23.252;2022-12-29T13:15:45;29.33;;;17.75;;
20619;SDS011;10469;42.720;23.252;2022-12-29T13:21:13;30.23;;;18.40;;
20619;SDS011;10469;42.720;23.252;2022-12-29T13:29:15;30.23;;;19.80;;
20619;SDS011;10469;42.720;23.252;2022-12-29T13:31:49;36.17;;;18.98;;
20619;SDS011;10469;42.720;23.252;2022-12-29T13:36:59;37.33;;;19.75;;
20619;SDS011;10469;42.720;23.252;2022-12-29T13:42:00;36.67;;;21.33;;
20619;SDS011;10469;42.720;23.252;2022-12-29T13:44:33;36.80;;;20.60;;
20619;SDS011;10469;42.720;23.252;2022-12-29T13:47:06;44.55;;;21.85;;
20619;SDS011;10469;42.720;23.252;2022-12-29T13:49:44;44.95;;;23.83;;
20619;SDS011;10469;42.720;23.252;2022-12-29T13:55:05;41.33;;;24.05;;
20619;SDS011;10469;42.720;23.252;2022-12-29T13:58:01;36.20;;;22.13;;
20619;SDS011;10469;42.720;23.252;2022-12-29T14:00:53;41.67;;;21.48;;
20619;SDS011;10469;42.720;23.252;2022-12-29T14:08:41;37.65;;;22.60;;
20619;SDS011;10469;42.720;23.252;2022-12-29T14:11:11;39.55;;;24.27;;
20619;SDS011;10469;42.720;23.252;2022-12-29T14:13:40;54.10;;;24.70;;
20619;SDS011;10469;42.720;23.252;2022-12-29T14:16:09;36.65;;;20.92;;
20619;SDS011;10469;42.720;23.252;2022-12-29T14:18:57;38.03;;;21.33;;
20619;SDS011;10469;42.720;23.252;2022-12-29T14:21:38;36.92;;;20.40;;
20619;SDS011;10469;42.720;23.252;2022-12-29T14:34:57;36.85;;;21.10;;
20619;SDS011;10469;42.720;23.252;2022-12-29T14:42:42;42.50;;;24.55;;
20619;SDS011;10469;42.720;23.252;2022-12-29T14:47:41;39.65;;;22.85;;
20619;SDS011;10469;42.720;23.252;2022-12-29T14:50:15;40.97;;;20.60;;
20619;SDS011;10469;42.720;23.252;2022-12-29T14:53:40;39.70;;;21.92;;
20619;SDS011;10469;42.720;23.252;2022-12-29T14:56:08;40.95;;;22.63;;
20619;SDS011;10469;42.720;23.252;2022-12-29T14:58:46;38.42;;;22.92;;
20619;SDS011;10469;42.720;23.252;2022-12-29T15:01:20;41.33;;;22.52;;
20619;SDS011;10469;42.720;23.252;2022-12-29T15:03:50;42.90;;;23.30;;
20619;SDS011;10469;42.720;23.252;2022-12-29T15:06:19;38.95;;;22.60;;
20619;SDS011;10469;42.720;23.252;2022-12-29T15:08:51;53.25;;;24.55;;
20619;SDS011;10469;42.720;23.252;2022-12-29T15:16:57;46.70;;;27.73;;
20619;SDS011;10469;42.720;23.252;2022-12-29T15:19:24;61.33;;;30.10;;
20619;SDS011;10469;42.720;23.252;2022-12-29T15:21:50;68.82;;;32.10;;
20619;SDS011;10469;42.720;23.252;2022-12-29T15:24:18;65.55;;;33.67;;
20619;SDS011;10469;42.720;23.252;2022-12-29T15:26:47;69.38;;;37.00;;
20619;SDS011;10469;42.720;23.252;2022-12-29T15:31:54;63.65;;;35.15;;
20619;SDS011;10469;42.720;23.252;2022-12-29T15:34:21;65.15;;;35.83;;
20619;SDS011;10469;42.720;23.252;2022-12-29T15:36:46;49.03;;;30.02;;
20619;SDS011;10469;42.720;23.252;2022-12-29T15:39:25;49.25;;;27.85;;
20619;SDS011;10469;42.720;23.252;2022-12-29T15:41:55;57.13;;;32.08;;
20619;SDS011;10469;42.720;23.252;2022-12-29T15:44:26;52.83;;;30.42;;
20619;SDS011;10469;42.720;23.252;2022-12-29T15:47:06;53.22;;;28.30;;
20619;SDS011;10469;42.720;23.252;2022-12-29T15:50:36;66.75;;;33.75;;
20619;SDS011;10469;42.720;23.252;2022-12-29T15:52:51;41.42;;;25.02;;
20619;SDS011;10469;42.720;23.252;2022-12-29T15:55:38;55.53;;;31.17;;
20619;SDS011;10469;42.720;23.252;2022-12-29T15:58:05;55.53;;;31.20;;
20619;SDS011;10469;42.720;23.252;2022-12-29T16:00:45;47.17;;;25.98;;
20619;SDS011;10469;42.720;23.252;2022-12-29T16:03:18;53.35;;;29.92;;
20619;SDS011;10469;42.720;23.252;2022-12-29T16:05:49;54.10;;;31.90;;
20619;SDS011;10469;42.720;23.252;2022-12-29T16:08:40;65.00;;;32.35;;
20619;SDS011;10469;42.720;23.252;2022-12-29T16:11:27;66.97;;;32.70;;
20619;SDS011;10469;42.720;23.252;2022-12-29T16:13:53;62.63;;;32.92;;
20619;SDS011;10469;42.720;23.252;2022-12-29T16:16:22;64.63;;;33.97;;
20619;SDS011;10469;42.720;23.252;2022-12-29T16:18:53;58.13;;;34.70;;
20619;SDS011;10469;42.720;23.252;2022-12-29T16:21:21;62.38;;;34.42;;
20619;SDS011;10469;42.720;23.252;2022-12-29T16:26:20;58.80;;;34.00;;
20619;SDS011;10469;42.720;23.252;2022-12-29T16:28:49;78.88;;;39.22;;
20619;SDS011;10469;42.720;23.252;2022-12-29T16:31:24;66.18;;;35.92;;
20619;SDS011;10469;42.720;23.252;2022-12-29T16:33:58;79.10;;;39.83;;
20619;SDS011;10469;42.720;23.252;2022-12-29T16:36:41;69.88;;;39.30;;
20619;SDS011;10469;42.720;23.252;2022-12-29T16:41:46;90.60;;;40.42;;
20619;SDS011;10469;42.720;23.252;2022-12-29T16:44:21;83.57;;;38.88;;
20619;SDS011;10469;42.720;23.252;2022-12-29T16:49:30;104.47;;;56.10;;
20619;SDS011;10469;42.720;23.252;2022-12-29T16:51:57;116.63;;;58.20;;
20619;SDS011;10469;42.720;23.252;2022-12-29T16:54:33;122.55;;;60.22;;
20619;SDS011;10469;42.720;23.252;2022-12-29T16:57:01;118.53;;;57.08;;
20619;SDS011;10469;42.720;23.252;2022-12-29T16:59:38;107.20;;;54.35;;
20619;SDS011;10469;42.720;23.252;2022-12-29T17:02:14;105.47;;;55.40;;
20619;SDS011;10469;42.720;23.252;2022-12-29T17:04:41;108.05;;;52.72;;
20619;SDS011;10469;42.720;23.252;2022-12-29T17:07:26;98.75;;;52.33;;
20619;SDS011;10469;42.720;23.252;2022-12-29T17:09:53;91.90;;;48.53;;
20619;SDS011;10469;42.720;23.252;2022-12-29T17:12:29;93.88;;;48.58;;
20619;SDS011;10469;42.720;23.252;2022-12-29T17:14:59;86.38;;;43.25;;
20619;SDS011;10469;42.720;23.252;2022-12-29T17:17:31;96.97;;;51.58;;
20619;SDS011;10469;42.720;23.252;2022-12-29T17:20:03;70.82;;;37.58;;
20619;SDS011;10469;42.720;23.252;2022-12-29T17:22:39;83.38;;;44.92;;